sensor_id;sensor_type;location;lat;lon;timestamp;temperature;humidity
21897;DHT22;11113;48.662;9.056;2022-07-29T00:00:42;20.90;99.90
21897;DHT22;11113;48.662;9.056;2022-07-29T00:03:10;21.00;99.90
21897;DHT22;11113;48.662;9.056;2022-07-29T00:05:38;20.90;99.90
21897;DHT22;11113;48.662;9.056;2022-07-29T00:08:05;21.00;99.90
21897;DHT22;11113;48.662;9.056;2022-07-29T00:10:31;20.90;99.90
21897;DHT22;11113;48.662;9.056;2022-07-29T00:12:56;20.80;99.90
21897;DHT22;11113;48.662;9.056;2022-07-29T00:15:22;20.90;99.90
21897;DHT22;11113;48.662;9.056;2022-07-29T00:17:48;20.90;99.90
21897;DHT22;11113;48.662;9.056;2022-07-29T00:20:13;20.90;99.90
21897;DHT22;11113;48.662;9.056;2022-07-29T00:22:39;20.90;99.90
21897;DHT22;11113;48.662;9.056;2022-07-29T00:25:05;20.90;99.90
21897;DHT22;11113;48.662;9.056;2022-07-29T00:27:33;20.80;99.90
21897;DHT22;11113;48.662;9.056;2022-07-29T00:30:00;20.90;99.90
21897;DHT22;11113;48.662;9.056;2022-07-29T00:32:26;20.80;99.90
21897;DHT22;11113;48.662;9.056;2022-07-29T00:34:52;20.70;99.90
21897;DHT22;11113;48.662;9.056;2022-07-29T00:37:36;20.70;99.90
21897;DHT22;11113;48.662;9.056;2022-07-29T00:40:02;20.70;99.90
21897;DHT22;11113;48.662;9.056;2022-07-29T00:42:28;20.60;99.90
21897;DHT22;11113;48.662;9.056;2022-07-29T00:44:54;20.50;99.90
21897;DHT22;11113;48.662;9.056;2022-07-29T00:47:19;20.30;99.90
21897;DHT22;11113;48.662;9.056;2022-07-29T00:49:45;20.40;99.90
21897;DHT22;11113;48.662;9.056;2022-07-29T00:52:11;20.40;99.90
21897;DHT22;11113;48.662;9.056;2022-07-29T00:54:38;20.40;99.90
21897;DHT22;11113;48.662;9.056;2022-07-29T00:57:06;20.40;99.90
21897;DHT22;11113;48.662;9.056;2022-07-29T00:59:33;20.40;99.90
21897;DHT22;11113;48.662;9.056;2022-07-29T01:02:00;20.40;99.90
21897;DHT22;11113;48.662;9.056;2022-07-29T01:04:26;20.30;99.90
21897;DHT22;11113;48.662;9.056;2022-07-29T01:06:52;20.30;99.90
21897;DHT22;11113;48.662;9.056;2022-07-29T01:09:19;20.30;99.90
21897;DHT22;11113;48.662;9.056;2022-07-29T01:11:46;20.40;99.90
21897;DHT22;11113;48.662;9.056;2022-07-29T01:14:14;20.30;99.90
21897;DHT22;11113;48.662;9.056;2022-07-29T01:17:02;20.30;99.90
21897;DHT22;11113;48.662;9.056;2022-07-29T01:19:48;20.30;99.90
21897;DHT22;11113;48.662;9.056;2022-07-29T01:30:44;20.00;99.90
21897;DHT22;11113;48.662;9.056;2022-07-29T01:33:15;20.00;99.90
21897;DHT22;11113;48.662;9.056;2022-07-29T01:36:10;19.90;99.90
21897;DHT22;11113;48.662;9.056;2022-07-29T01:38:42;19.80;99.90
21897;DHT22;11113;48.662;9.056;2022-07-29T01:41:16;19.70;99.90
21897;DHT22;11113;48.662;9.056;2022-07-29T01:43:52;19.70;99.90
21897;DHT22;11113;48.662;9.056;2022-07-29T01:46:25;19.70;99.90
21897;DHT22;11113;48.662;9.056;2022-07-29T01:49:02;19.70;99.90
21897;DHT22;11113;48.662;9.056;2022-07-29T01:51:49;19.70;99.90
21897;DHT22;11113;48.662;9.056;2022-07-29T01:54:29;19.80;99.90
21897;DHT22;11113;48.662;9.056;2022-07-29T01:56:59;19.80;99.90
21897;DHT22;11113;48.662;9.056;2022-07-29T01:59:26;19.90;99.90
21897;DHT22;11113;48.662;9.056;2022-07-29T02:01:57;20.00;99.90
21897;DHT22;11113;48.662;9.056;2022-07-29T02:04:25;20.00;99.90
21897;DHT22;11113;48.662;9.056;2022-07-29T02:06:58;20.00;99.90
21897;DHT22;11113;48.662;9.056;2022-07-29T02:09:28;20.00;99.90
21897;DHT22;11113;48.662;9.056;2022-07-29T02:11:57;20.00;99.90
21897;DHT22;11113;48.662;9.056;2022-07-29T02:14:29;20.00;99.90
21897;DHT22;11113;48.662;9.056;2022-07-29T02:16:59;20.00;99.90
21897;DHT22;11113;48.662;9.056;2022-07-29T02:19:29;20.00;99.90
21897;DHT22;11113;48.662;9.056;2022-07-29T02:21:58;20.00;99.90
21897;DHT22;11113;48.662;9.056;2022-07-29T02:24:26;20.00;99.90
21897;DHT22;11113;48.662;9.056;2022-07-29T02:26:56;20.00;99.90
21897;DHT22;11113;48.662;9.056;2022-07-29T02:29:26;19.90;99.90
21897;DHT22;11113;48.662;9.056;2022-07-29T02:31:55;19.80;99.90
21897;DHT22;11113;48.662;9.056;2022-07-29T02:34:23;19.80;99.90
21897;DHT22;11113;48.662;9.056;2022-07-29T02:36:51;19.80;99.90
21897;DHT22;11113;48.662;9.056;2022-07-29T02:39:19;19.70;99.90
21897;DHT22;11113;48.662;9.056;2022-07-29T02:41:52;19.60;99.90
21897;DHT22;11113;48.662;9.056;2022-07-29T02:44:24;19.60;99.90
21897;DHT22;11113;48.662;9.056;2022-07-29T02:46:57;19.60;99.90
21897;DHT22;11113;48.662;9.056;2022-07-29T02:49:38;19.60;99.90
21897;DHT22;11113;48.662;9.056;2022-07-29T02:52:27;19.70;99.90
21897;DHT22;11113;48.662;9.056;2022-07-29T02:55:18;19.60;99.90
21897;DHT22;11113;48.662;9.056;2022-07-29T02:57:59;19.50;99.90
21897;DHT22;11113;48.662;9.056;2022-07-29T03:00:29;19.50;99.90
21897;DHT22;11113;48.662;9.056;2022-07-29T03:03:01;19.40;99.90
21897;DHT22;11113;48.662;9.056;2022-07-29T03:05:29;19.30;99.90
21897;DHT22;11113;48.662;9.056;2022-07-29T03:08:00;19.30;99.90
21897;DHT22;11113;48.662;9.056;2022-07-29T03:10:28;19.20;99.90
21897;DHT22;11113;48.662;9.056;2022-07-29T03:12:55;19.30;99.90
21897;DHT22;11113;48.662;9.056;2022-07-29T03:15:22;19.20;99.90
21897;DHT22;11113;48.662;9.056;2022-07-29T03:17:49;19.20;99.90
21897;DHT22;11113;48.662;9.056;2022-07-29T03:20:16;19.10;99.90
21897;DHT22;11113;48.662;9.056;2022-07-29T03:22:44;19.00;99.90
21897;DHT22;11113;48.662;9.056;2022-07-29T03:25:17;19.00;99.90
21897;DHT22;11113;48.662;9.056;2022-07-29T03:27:44;19.00;99.90
21897;DHT22;11113;48.662;9.056;2022-07-29T03:30:12;19.10;99.90
21897;DHT22;11113;48.662;9.056;2022-07-29T03:32:39;18.90;99.90
21897;DHT22;11113;48.662;9.056;2022-07-29T03:35:06;19.00;99.90
21897;DHT22;11113;48.662;9.056;2022-07-29T03:37:32;19.00;99.90
21897;DHT22;11113;48.662;9.056;2022-07-29T03:39:59;18.90;99.90
21897;DHT22;11113;48.662;9.056;2022-07-29T03:42:30;18.90;99.90
21897;DHT22;11113;48.662;9.056;2022-07-29T03:45:03;18.90;99.90
21897;DHT22;11113;48.662;9.056;2022-07-29T03:47:37;18.90;99.90
21897;DHT22;11113;48.662;9.056;2022-07-29T03:50:06;18.90;99.90
21897;DHT22;11113;48.662;9.056;2022-07-29T03:52:35;19.10;99.90
21897;DHT22;11113;48.662;9.056;2022-07-29T03:55:02;19.10;99.90
21897;DHT22;11113;48.662;9.056;2022-07-29T03:57:30;19.10;99.90
21897;DHT22;11113;48.662;9.056;2022-07-29T03:59:57;19.10;99.90
21897;DHT22;11113;48.662;9.056;2022-07-29T04:02:25;19.10;99.90
21897;DHT22;11113;48.662;9.056;2022-07-29T04:04:51;19.10;99.90
21897;DHT22;11113;48.662;9.056;2022-07-29T04:07:17;19.00;99.90
21897;DHT22;11113;48.662;9.056;2022-07-29T04:09:43;19.00;99.90
21897;DHT22;11113;48.662;9.056;2022-07-29T04:12:09;19.00;99.90
21897;DHT22;11113;48.662;9.056;2022-07-29T04:14:35;19.10;99.90
21897;DHT22;11113;48.662;9.056;2022-07-29T04:17:02;19.10;99.90
21897;DHT22;11113;48.662;9.056;2022-07-29T04:19:29;19.10;99.90
21897;DHT22;11113;48.662;9.056;2022-07-29T04:21:56;19.10;99.90
21897;DHT22;11113;48.662;9.056;2022-07-29T04:24:22;19.20;99.90
21897;DHT22;11113;48.662;9.056;2022-07-29T04:26:48;19.20;99.90
21897;DHT22;11113;48.662;9.056;2022-07-29T04:29:14;19.40;99.90
21897;DHT22;11113;48.662;9.056;2022-07-29T04:31:41;19.40;99.90
21897;DHT22;11113;48.662;9.056;2022-07-29T04:34:07;19.40;99.90
21897;DHT22;11113;48.662;9.056;2022-07-29T04:36:34;19.50;99.90
21897;DHT22;11113;48.662;9.056;2022-07-29T04:39:00;19.50;99.90
21897;DHT22;11113;48.662;9.056;2022-07-29T04:41:26;19.60;99.90
21897;DHT22;11113;48.662;9.056;2022-07-29T04:43:53;19.70;99.90
21897;DHT22;11113;48.662;9.056;2022-07-29T04:46:18;19.80;99.90
21897;DHT22;11113;48.662;9.056;2022-07-29T04:48:47;19.90;99.90
21897;DHT22;11113;48.662;9.056;2022-07-29T04:51:14;20.00;99.90
21897;DHT22;11113;48.662;9.056;2022-07-29T04:53:40;20.00;99.90
21897;DHT22;11113;48.662;9.056;2022-07-29T04:56:06;20.10;99.90
21897;DHT22;11113;48.662;9.056;2022-07-29T04:58:34;20.10;99.90
21897;DHT22;11113;48.662;9.056;2022-07-29T05:01:00;20.20;99.90
21897;DHT22;11113;48.662;9.056;2022-07-29T05:03:26;20.10;99.90
21897;DHT22;11113;48.662;9.056;2022-07-29T05:05:52;20.20;99.90
21897;DHT22;11113;48.662;9.056;2022-07-29T05:08:17;20.20;99.90
21897;DHT22;11113;48.662;9.056;2022-07-29T05:10:43;20.40;99.90
21897;DHT22;11113;48.662;9.056;2022-07-29T05:13:09;20.40;99.90
21897;DHT22;11113;48.662;9.056;2022-07-29T05:15:35;20.50;99.90
21897;DHT22;11113;48.662;9.056;2022-07-29T05:18:01;20.50;99.90
21897;DHT22;11113;48.662;9.056;2022-07-29T05:20:28;20.40;99.90
21897;DHT22;11113;48.662;9.056;2022-07-29T05:22:58;20.40;99.90
21897;DHT22;11113;48.662;9.056;2022-07-29T05:25:26;20.40;99.90
21897;DHT22;11113;48.662;9.056;2022-07-29T05:27:53;20.40;99.90
21897;DHT22;11113;48.662;9.056;2022-07-29T05:30:21;20.40;99.90
21897;DHT22;11113;48.662;9.056;2022-07-29T05:32:47;20.50;99.90
21897;DHT22;11113;48.662;9.056;2022-07-29T05:35:14;20.40;99.90
21897;DHT22;11113;48.662;9.056;2022-07-29T05:37:40;20.40;99.90
21897;DHT22;11113;48.662;9.056;2022-07-29T05:40:06;20.20;99.90
21897;DHT22;11113;48.662;9.056;2022-07-29T05:42:32;20.20;99.90
21897;DHT22;11113;48.662;9.056;2022-07-29T05:44:59;20.30;99.90
21897;DHT22;11113;48.662;9.056;2022-07-29T05:47:25;20.40;99.90
21897;DHT22;11113;48.662;9.056;2022-07-29T05:49:51;20.40;99.90
21897;DHT22;11113;48.662;9.056;2022-07-29T05:52:17;20.40;99.90
21897;DHT22;11113;48.662;9.056;2022-07-29T05:54:43;20.50;99.90
21897;DHT22;11113;48.662;9.056;2022-07-29T05:57:15;20.60;99.90
21897;DHT22;11113;48.662;9.056;2022-07-29T05:59:48;20.70;99.90
21897;DHT22;11113;48.662;9.056;2022-07-29T06:02:15;20.80;99.90
21897;DHT22;11113;48.662;9.056;2022-07-29T06:04:40;20.90;99.90
21897;DHT22;11113;48.662;9.056;2022-07-29T06:07:06;21.00;99.90
21897;DHT22;11113;48.662;9.056;2022-07-29T06:09:33;21.00;99.90
21897;DHT22;11113;48.662;9.056;2022-07-29T06:11:59;21.10;99.90
21897;DHT22;11113;48.662;9.056;2022-07-29T06:14:25;21.10;99.90
21897;DHT22;11113;48.662;9.056;2022-07-29T06:16:52;21.20;99.90
21897;DHT22;11113;48.662;9.056;2022-07-29T06:19:18;21.20;99.90
21897;DHT22;11113;48.662;9.056;2022-07-29T06:21:45;21.40;99.90
21897;DHT22;11113;48.662;9.056;2022-07-29T06:24:12;21.30;99.90
21897;DHT22;11113;48.662;9.056;2022-07-29T06:26:40;21.30;99.90
21897;DHT22;11113;48.662;9.056;2022-07-29T06:29:14;21.40;99.90
21897;DHT22;11113;48.662;9.056;2022-07-29T06:31:43;21.60;99.90
21897;DHT22;11113;48.662;9.056;2022-07-29T06:34:09;21.50;99.90
21897;DHT22;11113;48.662;9.056;2022-07-29T06:36:36;21.80;99.90
21897;DHT22;11113;48.662;9.056;2022-07-29T06:39:07;21.80;99.90
21897;DHT22;11113;48.662;9.056;2022-07-29T06:41:33;21.90;99.90
21897;DHT22;11113;48.662;9.056;2022-07-29T06:44:00;22.00;99.90
21897;DHT22;11113;48.662;9.056;2022-07-29T06:46:30;22.00;99.90
21897;DHT22;11113;48.662;9.056;2022-07-29T06:48:56;22.10;99.90
21897;DHT22;11113;48.662;9.056;2022-07-29T06:51:22;22.20;99.90
21897;DHT22;11113;48.662;9.056;2022-07-29T06:53:48;21.70;99.90
21897;DHT22;11113;48.662;9.056;2022-07-29T06:56:15;21.60;99.90
21897;DHT22;11113;48.662;9.056;2022-07-29T06:58:41;22.00;99.90
21897;DHT22;11113;48.662;9.056;2022-07-29T07:01:07;22.10;99.90
21897;DHT22;11113;48.662;9.056;2022-07-29T07:03:33;22.20;99.90
21897;DHT22;11113;48.662;9.056;2022-07-29T07:05:59;22.40;99.90
21897;DHT22;11113;48.662;9.056;2022-07-29T07:08:25;22.40;99.90
21897;DHT22;11113;48.662;9.056;2022-07-29T07:10:52;22.60;99.90
21897;DHT22;11113;48.662;9.056;2022-07-29T07:13:18;22.60;99.90
21897;DHT22;11113;48.662;9.056;2022-07-29T07:15:46;22.50;99.90
21897;DHT22;11113;48.662;9.056;2022-07-29T07:18:14;22.50;99.90
21897;DHT22;11113;48.662;9.056;2022-07-29T07:20:41;22.80;99.90
21897;DHT22;11113;48.662;9.056;2022-07-29T07:23:08;22.70;99.90
21897;DHT22;11113;48.662;9.056;2022-07-29T07:25:34;22.80;99.90
21897;DHT22;11113;48.662;9.056;2022-07-29T07:28:00;22.60;99.90
21897;DHT22;11113;48.662;9.056;2022-07-29T07:30:26;22.40;99.90
21897;DHT22;11113;48.662;9.056;2022-07-29T07:32:53;22.60;99.90
21897;DHT22;11113;48.662;9.056;2022-07-29T07:35:19;22.80;99.90
21897;DHT22;11113;48.662;9.056;2022-07-29T07:37:45;23.00;99.90
21897;DHT22;11113;48.662;9.056;2022-07-29T07:40:12;23.00;99.90
21897;DHT22;11113;48.662;9.056;2022-07-29T07:42:40;22.70;99.90
21897;DHT22;11113;48.662;9.056;2022-07-29T07:45:07;23.10;99.90
21897;DHT22;11113;48.662;9.056;2022-07-29T07:47:36;23.30;99.90
21897;DHT22;11113;48.662;9.056;2022-07-29T07:50:08;23.10;99.90
21897;DHT22;11113;48.662;9.056;2022-07-29T07:52:52;23.30;99.90
21897;DHT22;11113;48.662;9.056;2022-07-29T07:55:20;23.60;99.90
21897;DHT22;11113;48.662;9.056;2022-07-29T07:57:46;23.90;99.90
21897;DHT22;11113;48.662;9.056;2022-07-29T08:00:14;24.30;99.90
